Time;durP1;ratioP1;P1;durP2;ratioP2;P2;SDS_P1;SDS_P2;PMS_P1;PMS_P2;Temp;Humidity;BMP_temperature;BMP_pressure;BME280_temperature;BME280_humidity;BME280_pressure;Samples;Min_cycle;Max_cycle;Signal;HPM_P1;HPM_P2
2022/12/15 00:39:37;;;;;;;2.70;2.60;;;13.40;61.50;;;;;;5074383;28;20723;-64
2022/12/15 00:42:25;;;;;;;0.97;0.97;;;13.40;61.40;;;;;;5076198;28;20979;-63
2022/12/15 00:45:13;;;;;;;0.50;0.50;;;13.30;61.10;;;;;;5074017;28;20515;-64
2022/12/15 00:48:00;;;;;;;0.40;0.40;;;13.30;61.20;;;;;;5076243;28;20236;-63
2022/12/15 00:50:52;;;;;;;0.50;0.50;;;13.30;61.10;;;;;;5074397;28;20225;-63
2022/12/15 01:21:42;;;;;;;1.40;1.33;;;12.30;60.90;;;;;;5074286;28;20212;-63
2022/12/15 01:24:30;;;;;;;0.60;0.60;;;12.30;60.90;;;;;;5073806;28;20423;-64
2022/12/15 01:27:18;;;;;;;0.40;0.40;;;12.20;60.30;;;;;;5075502;28;20484;-66
2022/12/15 01:30:08;;;;;;;0.50;0.50;;;12.10;60.30;;;;;;5075148;28;20475;-63
2022/12/15 01:32:56;;;;;;;0.40;0.40;;;12.10;60.80;;;;;;5075585;28;20554;-64
2022/12/15 01:35:45;;;;;;;1.47;1.37;;;12.00;59.60;;;;;;5073388;28;20510;-64
2022/12/15 01:38:34;;;;;;;1.07;1.07;;;11.90;60.30;;;;;;5074964;28;20462;-63
2022/12/15 01:41:22;;;;;;;0.40;0.40;;;11.90;61.00;;;;;;5073553;28;20423;-64
2022/12/15 01:44:15;;;;;;;0.50;0.50;;;11.80;61.30;;;;;;5075427;28;20459;-62
2022/12/15 01:47:04;;;;;;;1.17;1.17;;;11.80;61.60;;;;;;5075380;28;20522;-63
2022/12/15 01:49:54;;;;;;;0.50;0.50;;;11.80;62.30;;;;;;5075039;28;20443;-62
2022/12/15 01:52:43;;;;;;;2.00;1.53;;;11.90;63.20;;;;;;5075067;28;20473;-65
2022/12/15 01:55:34;;;;;;;7.73;1.37;;;12.00;62.90;;;;;;5074794;28;20416;-64
2022/12/15 01:58:23;;;;;;;1.50;1.40;;;12.10;62.80;;;;;;5075568;28;20518;-62
2022/12/15 02:01:11;;;;;;;0.40;0.40;;;12.20;62.60;;;;;;5073997;28;20543;-64
2022/12/15 02:04:00;;;;;;;0.90;0.90;;;12.30;62.20;;;;;;5074294;28;20463;-63
2022/12/15 02:06:49;;;;;;;7.70;7.33;;;12.30;62.20;;;;;;5074946;28;20433;-63
2022/12/15 02:09:37;;;;;;;0.40;0.40;;;12.30;61.30;;;;;;5073157;28;20443;-64
2022/12/15 02:12:34;;;;;;;0.60;0.60;;;12.30;61.60;;;;;;5068122;28;20290;-65
2022/12/15 02:15:27;;;;;;;0.40;0.40;;;12.30;61.10;;;;;;5072573;28;20430;-63
2022/12/15 02:18:21;;;;;;;2.20;2.10;;;12.20;60.10;;;;;;5073627;28;20431;-66
2022/12/15 02:21:15;;;;;;;4.13;3.40;;;12.10;60.20;;;;;;5071823;28;20443;-64
2022/12/15 02:24:40;;;;;;;0.40;0.40;;;12.20;60.40;;;;;;5073854;28;20550;-64
2022/12/15 02:27:47;;;;;;;0.70;0.70;;;12.10;59.60;;;;;;5073080;28;20423;-64
2022/12/15 02:30:44;;;;;;;1.17;1.17;;;12.10;60.30;;;;;;5072922;28;21030;-66
2022/12/15 02:33:35;;;;;;;0.50;0.50;;;12.00;59.90;;;;;;5073501;28;20415;-63
2022/12/15 02:36:28;;;;;;;0.40;0.40;;;11.90;59.50;;;;;;5072920;28;20435;-63
2022/12/15 02:39:18;;;;;;;0.50;0.50;;;11.90;59.90;;;;;;5073708;28;20489;-63
2022/12/15 02:42:06;;;;;;;0.93;0.93;;;11.80;60.10;;;;;;5073698;28;20514;-64
2022/12/15 02:44:58;;;;;;;1.03;1.03;;;11.70;59.90;;;;;;5072945;28;20907;-63
2022/12/15 02:47:57;;;;;;;0.67;0.67;;;11.70;60.40;;;;;;5072874;28;20953;-64
2022/12/15 02:50:58;;;;;;;0.40;0.40;;;11.60;61.20;;;;;;5072597;28;20790;-63
2022/12/15 02:54:31;;;;;;;3.03;2.83;;;11.60;60.80;;;;;;5072343;28;20411;-62
2022/12/15 02:57:25;;;;;;;0.40;0.40;;;11.60;61.20;;;;;;5054318;28;20950;-62
2022/12/15 03:00:15;;;;;;;9.00;8.40;;;11.60;62.90;;;;;;5071346;28;20451;-64
2022/12/15 03:03:05;;;;;;;0.60;0.60;;;11.70;62.90;;;;;;5072208;28;20459;-64
2022/12/15 03:05:53;;;;;;;0.40;0.40;;;11.90;62.70;;;;;;5072044;28;20462;-63
2022/12/15 03:08:41;;;;;;;1.23;1.23;;;13.70;64.20;;;;;;5071082;28;20809;-64
2022/12/15 03:11:30;;;;;;;0.90;0.90;;;12.20;62.00;;;;;;5071055;28;20428;-63
2022/12/15 03:14:18;;;;;;;0.50;0.50;;;12.30;62.00;;;;;;5071735;28;20431;-64
2022/12/15 03:17:06;;;;;;;3.07;2.87;;;12.40;62.10;;;;;;5071151;28;20514;-63
2022/12/15 03:19:55;;;;;;;5.40;5.03;;;12.30;62.20;;;;;;5072122;28;20521;-63
2022/12/15 03:22:44;;;;;;;1.80;1.80;;;12.40;61.10;;;;;;5072144;28;20514;-63
2022/12/15 03:25:32;;;;;;;9.83;2.10;;;12.30;60.70;;;;;;5070352;28;20422;-64
2022/12/15 03:28:20;;;;;;;1.37;1.37;;;12.30;60.30;;;;;;5072051;28;20510;-63
2022/12/15 03:31:08;;;;;;;4.70;3.20;;;12.30;61.10;;;;;;5071143;28;20442;-63
2022/12/15 03:33:56;;;;;;;0.50;0.50;;;12.30;60.30;;;;;;5071205;28;20418;-64
2022/12/15 03:36:45;;;;;;;2.73;2.63;;;12.20;59.90;;;;;;5071183;28;20423;-63
2022/12/15 03:39:33;;;;;;;0.50;0.50;;;12.30;60.40;;;;;;5070183;28;20821;-65
2022/12/15 03:42:47;;;;;;;0.40;0.40;;;12.10;59.90;;;;;;5071962;28;20509;-64
2022/12/15 03:45:30;;;;;;;1.23;1.23;;;12.20;60.00;;;;;;5071903;28;20502;-63
2022/12/15 03:48:18;;;;;;;0.50;0.50;;;12.10;60.10;;;;;;5072421;28;20924;-64
2022/12/15 03:51:06;;;;;;;12.67;2.67;;;12.00;60.20;;;;;;5074587;28;20446;-63
2022/12/15 03:53:57;;;;;;;3.67;3.47;;;11.90;60.10;;;;;;5075740;28;20415;-62
2022/12/15 03:56:45;;;;;;;1.00;1.00;;;11.80;60.00;;;;;;5074795;28;20427;-62
2022/12/15 03:59:33;;;;;;;0.50;0.50;;;11.70;61.10;;;;;;5030113;28;1289519;-63
2022/12/15 04:02:21;;;;;;;0.90;0.90;;;11.70;60.70;;;;;;5077258;28;20669;-63
2022/12/15 04:05:15;;;;;;;0.53;0.53;;;11.60;61.10;;;;;;5076712;28;20560;-64
2022/12/15 04:08:03;;;;;;;3.27;3.10;;;11.60;61.10;;;;;;5076895;28;20423;-64
2022/12/15 04:10:52;;;;;;;1.03;1.03;;;11.60;61.40;;;;;;5069569;28;20845;-63
2022/12/15 04:13:40;;;;;;;0.40;0.40;;;11.60;62.70;;;;;;5055390;28;20424;-63
2022/12/15 04:16:29;;;;;;;0.50;0.50;;;11.80;63.00;;;;;;5056486;28;20420;-62
2022/12/15 04:22:23;;;;;;;0.40;0.40;;;12.10;62.30;;;;;;5055463;28;20412;-64
2022/12/15 05:33:32;;;;;;;0.40;0.40;;;11.90;62.30;;;;;;5034544;28;20428;-62
2022/12/15 05:36:21;;;;;;;1.00;1.00;;;12.10;62.10;;;;;;5033715;28;20421;-62
2022/12/15 05:39:09;;;;;;;14.57;4.87;;;12.30;61.90;;;;;;5033955;28;20425;-62
2022/12/15 05:41:57;;;;;;;9.63;3.27;;;12.50;61.70;;;;;;5033918;28;20440;-62
2022/12/15 05:44:45;;;;;;;3.93;3.57;;;12.70;61.50;;;;;;5033578;28;20991;-63
2022/12/15 05:47:38;;;;;;;0.80;0.80;;;12.80;61.20;;;;;;5032849;28;20432;-62
2022/12/15 05:50:26;;;;;;;0.90;0.90;;;12.90;61.80;;;;;;5033391;28;20831;-62
2022/12/15 05:53:14;;;;;;;0.60;0.60;;;12.90;60.90;;;;;;5032872;28;20435;-62
2022/12/15 05:56:03;;;;;;;0.40;0.40;;;12.90;60.60;;;;;;5032983;28;20202;-63
2022/12/15 05:58:51;;;;;;;0.40;0.40;;;13.00;60.60;;;;;;5032444;28;20202;-62
2022/12/15 06:01:39;;;;;;;7.23;6.43;;;12.90;60.60;;;;;;5032627;28;20471;-62
2022/12/15 06:04:29;;;;;;;0.50;0.50;;;12.80;59.80;;;;;;5033678;28;20469;-62
2022/12/15 06:07:17;;;;;;;0.67;0.67;;;12.80;60.20;;;;;;5033274;28;20426;-62
2022/12/15 06:10:06;;;;;;;0.60;0.60;;;12.60;60.20;;;;;;5031825;28;20464;-62
2022/12/15 06:12:54;;;;;;;0.40;0.40;;;12.60;59.60;;;;;;5032948;28;20806;-62
2022/12/15 06:15:42;;;;;;;3.27;3.07;;;12.50;59.80;;;;;;5034565;28;20417;-62
2022/12/15 06:18:32;;;;;;;0.50;0.50;;;12.40;59.40;;;;;;5035198;28;21166;-62
2022/12/15 06:21:23;;;;;;;0.60;0.60;;;12.40;59.10;;;;;;5034306;28;20841;-62
2022/12/15 06:24:11;;;;;;;0.40;0.40;;;12.20;59.10;;;;;;5033391;28;20471;-62
2022/12/15 06:26:59;;;;;;;0.40;0.40;;;12.00;59.10;;;;;;5033223;28;20925;-63
2022/12/15 06:29:47;;;;;;;0.40;0.40;;;12.00;59.10;;;;;;5033380;28;20448;-62
2022/12/15 06:32:35;;;;;;;0.40;0.40;;;12.00;59.50;;;;;;5032235;28;20421;-62
2022/12/15 06:35:23;;;;;;;0.40;0.40;;;11.90;59.90;;;;;;5032229;28;20431;-62
2022/12/15 06:38:13;;;;;;;0.40;0.40;;;11.90;60.50;;;;;;5033390;28;21016;-62
2022/12/15 06:41:03;;;;;;;0.50;0.50;;;12.00;60.50;;;;;;5030431;28;20540;-62
2022/12/15 06:43:54;;;;;;;1.13;1.10;;;12.10;61.40;;;;;;5031430;28;20949;-62
2022/12/15 06:46:44;;;;;;;1.33;1.23;;;12.20;61.10;;;;;;5013396;28;20796;-62
2022/12/15 06:49:32;;;;;;;0.63;0.63;;;12.60;69.40;;;;;;5012925;28;20438;-62
2022/12/15 06:52:21;;;;;;;2.80;2.67;;;12.60;61.10;;;;;;5021046;28;20437;-62
2022/12/15 06:55:10;;;;;;;0.40;0.40;;;12.70;60.70;;;;;;5033916;28;20512;-62
2022/12/15 06:57:58;;;;;;;0.93;0.93;;;12.80;60.40;;;;;;5032794;28;20528;-62
2022/12/15 07:00:46;;;;;;;0.50;0.50;;;12.90;60.40;;;;;;5031644;28;20457;-62
2022/12/15 07:03:35;;;;;;;0.40;0.40;;;12.90;60.20;;;;;;5033136;28;20495;-63
2022/12/15 07:06:24;;;;;;;0.40;0.40;;;13.00;60.10;;;;;;5033627;28;20468;-62
2022/12/15 07:09:15;;;;;;;0.63;0.63;;;12.90;59.70;;;;;;5032804;28;20944;-62
2022/12/15 07:12:06;;;;;;;2.60;2.50;;;12.80;60.00;;;;;;5035685;28;20432;-62
2022/12/15 07:14:54;;;;;;;0.50;0.50;;;12.80;59.10;;;;;;5031566;28;20828;-63
2022/12/15 07:17:42;;;;;;;0.40;0.40;;;12.80;59.40;;;;;;5032397;28;20417;-63
2022/12/15 07:20:30;;;;;;;0.40;0.40;;;12.50;59.10;;;;;;5031535;28;20448;-63
2022/12/15 07:23:19;;;;;;;0.50;0.50;;;12.40;59.20;;;;;;5032383;28;20422;-63
2022/12/15 07:26:27;;;;;;;0.40;0.40;;;12.40;59.10;;;;;;5032790;28;20475;-63
2022/12/15 07:29:16;;;;;;;0.87;0.87;;;12.20;58.60;;;;;;5032513;28;20293;-63
2022/12/15 07:32:10;;;;;;;0.40;0.40;;;12.10;59.00;;;;;;5034835;28;20431;-62
2022/12/15 07:34:58;;;;;;;0.50;0.50;;;12.00;58.50;;;;;;5029399;28;20512;-62
2022/12/15 07:37:46;;;;;;;0.50;0.50;;;11.90;59.50;;;;;;5031671;28;20416;-62
2022/12/15 07:40:34;;;;;;;0.40;0.40;;;11.80;59.60;;;;;;5031505;28;20449;-62
2022/12/15 07:43:22;;;;;;;0.50;0.50;;;11.70;58.80;;;;;;5031306;28;20775;-63
2022/12/15 07:46:12;;;;;;;0.60;0.60;;;11.80;60.50;;;;;;5032422;28;20555;-63
2022/12/15 07:49:00;;;;;;;0.70;0.70;;;11.60;60.50;;;;;;5032404;28;20421;-62
2022/12/15 07:51:48;;;;;;;0.40;0.40;;;11.80;60.10;;;;;;5032385;28;20964;-62
2022/12/15 07:54:36;;;;;;;0.57;0.57;;;11.90;59.90;;;;;;5032248;28;20429;-63
2022/12/15 07:57:24;;;;;;;0.40;0.40;;;11.90;59.50;;;;;;5032504;28;20425;-62
2022/12/15 08:00:14;;;;;;;0.40;0.40;;;11.90;59.80;;;;;;5030986;28;20553;-62
2022/12/15 08:03:03;;;;;;;1.33;1.33;;;11.90;59.40;;;;;;5029517;28;20424;-62
2022/12/15 08:05:52;;;;;;;0.40;0.40;;;11.90;59.80;;;;;;5031039;28;20452;-62
2022/12/15 08:08:47;;;;;;;0.50;0.50;;;11.90;59.60;;;;;;5032214;28;20436;-62
2022/12/15 08:11:39;;;;;;;0.40;0.40;;;11.90;59.20;;;;;;5030994;28;20969;-62
2022/12/15 08:14:28;;;;;;;0.40;0.40;;;11.90;60.10;;;;;;5030424;28;20425;-62
2022/12/15 08:17:16;;;;;;;0.50;0.50;;;11.90;59.50;;;;;;5031522;28;20440;-67
2022/12/15 08:20:07;;;;;;;0.47;0.47;;;11.90;59.10;;;;;;5034690;28;20453;-63
2022/12/15 08:22:57;;;;;;;0.40;0.40;;;11.80;59.60;;;;;;5048841;28;20455;-63
2022/12/15 08:25:45;;;;;;;0.47;0.47;;;11.80;59.10;;;;;;5049042;28;20460;-63
2022/12/15 08:28:34;;;;;;;0.40;0.40;;;11.80;60.40;;;;;;5054882;28;20440;-62
2022/12/15 08:31:24;;;;;;;0.40;0.40;;;11.80;60.40;;;;;;5042436;28;20676;-63
2022/12/15 08:34:12;;;;;;;1.33;1.33;;;11.70;60.40;;;;;;5047420;28;20429;-62
2022/12/15 08:37:02;;;;;;;0.40;0.40;;;11.70;60.50;;;;;;5041722;28;20431;-63
2022/12/15 08:39:50;;;;;;;2.10;1.63;;;12.50;61.60;;;;;;5035368;28;20539;-62
2022/12/15 08:42:39;;;;;;;0.50;0.50;;;11.60;60.10;;;;;;5014158;28;20430;-62
2022/12/15 08:45:27;;;;;;;0.70;0.70;;;11.60;61.30;;;;;;5015570;28;20468;-62
2022/12/15 08:48:16;;;;;;;0.40;0.40;;;11.60;62.00;;;;;;5015172;28;20521;-62
2022/12/15 08:51:04;;;;;;;1.43;1.43;;;11.80;62.20;;;;;;5015300;28;20446;-62
2022/12/15 08:53:54;;;;;;;0.40;0.40;;;12.00;62.20;;;;;;5014880;28;20425;-62
2022/12/15 08:56:42;;;;;;;2.60;1.83;;;12.20;61.90;;;;;;5016104;28;20444;-62
2022/12/15 08:59:30;;;;;;;1.80;1.70;;;12.50;61.30;;;;;;5014142;28;21481;-62
2022/12/15 09:02:18;;;;;;;0.40;0.40;;;12.50;61.50;;;;;;5015664;28;20430;-62
2022/12/15 09:05:07;;;;;;;0.40;0.40;;;12.60;61.20;;;;;;5015070;28;20429;-62
2022/12/15 09:07:56;;;;;;;3.03;2.63;;;12.70;61.00;;;;;;5014576;28;20429;-62
2022/12/15 09:10:53;;;;;;;0.70;0.70;;;12.70;61.00;;;;;;5015285;28;21193;-62
2022/12/15 09:13:41;;;;;;;5.90;1.63;;;12.70;60.70;;;;;;5014656;28;20433;-62
2022/12/15 09:16:29;;;;;;;0.77;0.77;;;12.70;60.80;;;;;;5014832;28;20457;-62
2022/12/15 09:19:18;;;;;;;0.40;0.40;;;12.70;60.70;;;;;;5013745;28;20422;-62
2022/12/15 09:22:06;;;;;;;0.40;0.40;;;12.80;60.80;;;;;;5015502;28;21045;-62
2022/12/15 09:24:54;;;;;;;0.40;0.40;;;12.70;60.70;;;;;;5014615;28;20429;-62
2022/12/15 09:27:44;;;;;;;6.03;3.90;;;12.70;61.40;;;;;;5013967;28;20996;-62
2022/12/15 09:30:32;;;;;;;0.40;0.40;;;12.60;60.70;;;;;;5012234;28;20548;-63
2022/12/15 09:33:20;;;;;;;0.40;0.40;;;12.50;60.00;;;;;;5014686;28;20206;-62
2022/12/15 09:36:09;;;;;;;0.40;0.40;;;12.40;60.40;;;;;;5014652;28;20422;-62
2022/12/15 09:38:58;;;;;;;1.63;1.53;;;12.30;60.40;;;;;;5013745;28;20528;-62
2022/12/15 09:41:52;;;;;;;0.40;0.40;;;12.20;60.20;;;;;;5014386;28;20770;-63
2022/12/15 09:44:42;;;;;;;0.50;0.50;;;12.20;60.70;;;;;;5013654;28;20557;-63
2022/12/15 09:47:37;;;;;;;0.40;0.40;;;12.10;60.60;;;;;;5013075;28;21003;-62
2022/12/15 09:50:31;;;;;;;0.40;0.40;;;12.00;60.10;;;;;;5013761;28;20452;-62
2022/12/15 09:53:22;;;;;;;0.80;0.80;;;12.00;60.80;;;;;;5014010;28;20424;-63
2022/12/15 09:56:40;;;;;;;0.70;0.70;;;12.10;62.00;;;;;;5013694;28;20418;-62
2022/12/15 09:59:36;;;;;;;2.20;0.50;;;12.30;62.20;;;;;;5013629;28;20520;-62
2022/12/15 10:02:56;;;;;;;0.40;0.40;;;12.30;62.20;;;;;;5013373;28;20428;-62
2022/12/15 10:05:57;;;;;;;2.47;2.30;;;12.50;61.90;;;;;;5012740;28;20426;-62
2022/12/15 10:09:17;;;;;;;0.93;0.93;;;12.70;61.70;;;;;;5013431;28;20432;-62
2022/12/15 10:12:10;;;;;;;1.03;1.03;;;12.80;60.90;;;;;;5012685;28;20935;-63
2022/12/15 10:15:10;;;;;;;0.70;0.70;;;12.90;61.50;;;;;;5012476;28;20422;-62
2022/12/15 10:18:06;;;;;;;2.20;2.10;;;13.00;61.20;;;;;;5012952;28;20430;-63
2022/12/15 10:20:55;;;;;;;0.40;0.40;;;13.00;61.10;;;;;;5013931;28;20980;-63
2022/12/15 10:23:43;;;;;;;0.40;0.40;;;13.00;61.00;;;;;;5029977;28;20426;-62
2022/12/15 10:26:38;;;;;;;0.57;0.57;;;13.00;61.00;;;;;;5032618;28;20498;-63
2022/12/15 10:29:39;;;;;;;0.40;0.40;;;12.90;66.70;;;;;;5031694;28;20206;-62
2022/12/15 10:32:33;;;;;;;0.40;0.40;;;12.90;60.30;;;;;;5033092;28;20804;-63
2022/12/15 10:35:32;;;;;;;0.40;0.40;;;12.80;61.00;;;;;;5032153;28;20331;-63
2022/12/15 10:38:25;;;;;;;0.40;0.40;;;12.70;60.90;;;;;;5032047;28;20441;-63
2022/12/15 10:41:16;;;;;;;0.40;0.40;;;12.70;60.80;;;;;;5031717;28;20452;-62
2022/12/15 10:44:24;;;;;;;0.40;0.40;;;12.60;60.70;;;;;;5031577;28;20247;-62
2022/12/15 10:47:32;;;;;;;0.60;0.60;;;12.50;60.80;;;;;;5031978;28;20468;-62
2022/12/15 10:50:23;;;;;;;4.77;1.70;;;12.50;60.90;;;;;;5031944;28;20437;-63
2022/12/15 10:53:39;;;;;;;0.40;0.40;;;12.40;60.40;;;;;;5031257;28;20941;-62
2022/12/15 10:56:29;;;;;;;0.93;0.93;;;12.40;60.80;;;;;;5032081;28;20419;-62
2022/12/15 10:59:25;;;;;;;0.40;0.40;;;12.40;60.90;;;;;;5028893;28;20523;-62
2022/12/15 11:02:31;;;;;;;0.50;0.50;;;12.40;60.80;;;;;;5028246;28;21028;-64
2022/12/15 11:05:20;;;;;;;1.07;1.07;;;12.40;61.60;;;;;;5030651;28;20425;-62
2022/12/15 11:08:21;;;;;;;0.40;0.40;;;12.40;61.50;;;;;;5021434;28;20464;-63
2022/12/15 11:14:43;;;;;;;0.70;0.70;;;12.40;62.70;;;;;;5032406;28;20690;-63
2022/12/15 11:17:40;;;;;;;0.80;0.80;;;12.60;62.70;;;;;;5031132;28;20429;-63
2022/12/15 11:20:34;;;;;;;0.50;0.50;;;12.70;62.40;;;;;;5020332;28;20540;-63
2022/12/15 11:23:30;;;;;;;2.73;2.63;;;12.80;62.20;;;;;;5019068;28;20516;-63
2022/12/15 11:26:34;;;;;;;0.40;0.40;;;12.90;62.20;;;;;;5030195;28;20436;-63
2022/12/15 11:29:29;;;;;;;0.97;0.97;;;13.00;61.20;;;;;;5030757;28;20765;-63
2022/12/15 11:32:22;;;;;;;0.50;0.50;;;13.10;61.90;;;;;;5024864;28;20929;-63
2022/12/15 11:35:13;;;;;;;0.70;0.70;;;13.10;62.50;;;;;;5032437;28;20417;-63
2022/12/15 11:38:11;;;;;;;0.40;0.40;;;13.10;61.60;;;;;;5050608;28;20431;-63
2022/12/15 11:41:08;;;;;;;0.40;0.40;;;13.20;61.70;;;;;;5051916;28;20543;-63
2022/12/15 11:44:11;;;;;;;0.40;0.40;;;13.10;61.50;;;;;;5047585;28;20492;-63
2022/12/15 11:47:11;;;;;;;3.67;3.40;;;13.10;61.70;;;;;;5031389;28;20225;-63
2022/12/15 11:50:18;;;;;;;1.27;1.17;;;13.10;61.70;;;;;;5031931;28;20482;-63
2022/12/15 11:53:22;;;;;;;0.40;0.40;;;13.00;61.40;;;;;;5031840;28;20490;-63
2022/12/15 11:56:20;;;;;;;0.40;0.40;;;13.00;61.30;;;;;;5030756;28;20427;-63
2022/12/15 11:59:37;;;;;;;0.40;0.40;;;13.00;61.20;;;;;;5031641;28;20425;-63
2022/12/15 12:02:43;;;;;;;0.40;0.40;;;12.90;60.80;;;;;;5032816;28;20514;-64
2022/12/15 12:05:50;;;;;;;1.73;1.63;;;12.90;60.90;;;;;;5031158;28;20795;-63
2022/12/15 12:08:57;;;;;;;2.50;1.33;;;12.90;61.30;;;;;;5031196;28;20471;-64
2022/12/15 12:11:54;;;;;;;0.93;0.93;;;12.80;61.30;;;;;;5036270;28;20202;-63
2022/12/15 12:14:57;;;;;;;0.40;0.40;;;12.80;62.00;;;;;;5035437;28;20209;-63
2022/12/15 12:17:49;;;;;;;0.40;0.40;;;12.80;62.10;;;;;;5036109;28;20420;-63
2022/12/15 12:20:43;;;;;;;1.43;1.33;;;12.70;61.90;;;;;;5034481;28;20925;-63
2022/12/15 12:23:38;;;;;;;0.40;0.40;;;12.70;61.90;;;;;;5037446;28;20202;-63
2022/12/15 12:26:32;;;;;;;3.10;2.97;;;12.70;62.00;;;;;;5036145;28;20417;-63
2022/12/15 12:29:28;;;;;;;0.40;0.40;;;12.60;62.50;;;;;;5035553;28;20217;-62
2022/12/15 12:32:25;;;;;;;0.40;0.40;;;12.60;62.10;;;;;;5034758;28;20670;-63
2022/12/15 12:35:17;;;;;;;0.50;0.50;;;12.60;63.00;;;;;;5034519;28;20428;-63
2022/12/15 12:38:29;;;;;;;0.40;0.40;;;12.70;63.10;;;;;;5034425;28;20779;-63
2022/12/15 12:41:31;;;;;;;0.40;0.40;;;12.90;63.20;;;;;;5033747;28;20441;-63
2022/12/15 12:44:27;;;;;;;2.30;1.80;;;12.90;63.00;;;;;;5035284;28;20425;-63
2022/12/15 12:47:20;;;;;;;3.17;2.97;;;13.00;63.00;;;;;;5034491;28;21185;-63
2022/12/15 12:50:15;;;;;;;0.60;0.60;;;13.00;62.80;;;;;;5034092;28;20956;-63
2022/12/15 12:53:04;;;;;;;4.07;3.80;;;13.00;62.70;;;;;;5034703;28;20433;-63
2022/12/15 12:55:53;;;;;;;3.57;3.30;;;13.00;62.70;;;;;;5035077;28;20425;-63
2022/12/15 12:58:41;;;;;;;0.40;0.40;;;13.00;62.70;;;;;;5034544;28;20959;-63
2022/12/15 13:01:33;;;;;;;0.40;0.40;;;13.00;62.40;;;;;;5034384;28;20464;-63
2022/12/15 13:04:38;;;;;;;0.40;0.40;;;13.00;62.50;;;;;;5034199;28;20468;-63
2022/12/15 13:07:31;;;;;;;0.87;0.87;;;12.90;62.30;;;;;;5034556;28;20457;-63
2022/12/15 13:10:21;;;;;;;0.40;0.40;;;12.90;62.30;;;;;;5034106;28;20587;-64
2022/12/15 13:13:34;;;;;;;0.40;0.40;;;12.90;62.40;;;;;;5035203;28;20198;-63
2022/12/15 13:16:25;;;;;;;1.13;1.13;;;12.90;62.40;;;;;;5034485;28;20202;-63
2022/12/15 13:19:14;;;;;;;0.40;0.40;;;12.90;62.60;;;;;;5034132;28;20201;-62
2022/12/15 13:22:03;;;;;;;0.60;0.60;;;12.80;62.40;;;;;;5032803;28;20202;-63
2022/12/15 13:24:51;;;;;;;0.40;0.40;;;12.80;62.10;;;;;;5035123;28;20579;-63
2022/12/15 13:27:40;;;;;;;0.40;0.40;;;12.80;62.60;;;;;;5033556;28;20724;-63
2022/12/15 13:30:28;;;;;;;0.40;0.40;;;12.70;62.70;;;;;;5032819;28;21060;-63
2022/12/15 13:33:18;;;;;;;0.40;0.40;;;12.70;62.90;;;;;;5033893;28;20425;-63
2022/12/15 13:36:08;;;;;;;0.50;0.50;;;12.70;62.70;;;;;;5035107;28;20432;-63
2022/12/15 13:38:56;;;;;;;0.47;0.47;;;12.60;63.10;;;;;;5033498;28;21012;-63
2022/12/15 13:42:24;;;;;;;0.40;0.40;;;12.50;63.50;;;;;;5034031;28;20425;-63
2022/12/15 13:45:43;;;;;;;0.40;0.40;;;12.70;63.80;;;;;;5034929;28;20425;-63
2022/12/15 13:48:39;;;;;;;0.40;0.40;;;12.80;63.70;;;;;;5033376;28;20464;-63
2022/12/15 13:51:32;;;;;;;0.40;0.40;;;12.90;63.50;;;;;;5032779;28;20445;-63
2022/12/15 13:54:24;;;;;;;0.60;0.60;;;13.00;63.30;;;;;;5032987;28;20426;-63
2022/12/15 13:57:16;;;;;;;0.40;0.40;;;13.10;63.20;;;;;;5033211;28;20205;-63
2022/12/15 14:00:17;;;;;;;1.80;1.70;;;13.20;63.10;;;;;;5033571;28;20487;-63
2022/12/15 14:03:06;;;;;;;16.73;4.03;;;13.20;62.80;;;;;;5034117;28;20461;-63
2022/12/15 14:05:56;;;;;;;2.07;1.97;;;13.30;62.90;;;;;;5034039;28;20957;-63
2022/12/15 14:08:47;;;;;;;0.40;0.40;;;13.40;63.00;;;;;;5032768;28;20972;-63
2022/12/15 14:11:41;;;;;;;1.83;1.73;;;13.40;62.80;;;;;;5032735;28;20226;-63
2022/12/15 14:14:48;;;;;;;0.50;0.50;;;13.30;62.90;;;;;;5033408;28;20562;-63
2022/12/15 14:17:38;;;;;;;0.40;0.40;;;13.40;63.10;;;;;;5033247;28;20556;-63
2022/12/15 14:20:28;;;;;;;0.40;0.40;;;13.30;62.70;;;;;;5033105;28;20240;-63
2022/12/15 14:23:20;;;;;;;0.40;0.40;;;13.40;62.70;;;;;;5032682;28;21075;-63
2022/12/15 14:26:11;;;;;;;0.40;0.40;;;13.30;62.30;;;;;;5032906;28;20503;-64
2022/12/15 14:29:02;;;;;;;0.40;0.40;;;13.30;62.50;;;;;;5033880;28;20218;-63
2022/12/15 14:31:53;;;;;;;0.40;0.40;;;13.20;62.50;;;;;;5033942;28;20599;-63
2022/12/15 14:34:44;;;;;;;0.40;0.40;;;13.10;62.50;;;;;;5033067;28;20417;-63
2022/12/15 14:37:37;;;;;;;0.40;0.40;;;13.10;62.70;;;;;;5032313;28;20804;-63
2022/12/15 14:40:26;;;;;;;2.20;2.10;;;13.00;62.50;;;;;;5032382;28;20467;-65
2022/12/15 14:43:20;;;;;;;0.40;0.40;;;12.90;62.60;;;;;;5032463;28;20429;-63
2022/12/15 14:46:11;;;;;;;2.03;1.93;;;12.90;62.70;;;;;;5033318;28;20209;-63
2022/12/15 14:49:03;;;;;;;0.40;0.40;;;12.90;63.10;;;;;;5032157;28;20226;-63
2022/12/15 14:51:57;;;;;;;0.40;0.40;;;12.80;62.90;;;;;;5032555;28;20421;-63
2022/12/15 14:54:53;;;;;;;0.40;0.40;;;12.70;63.30;;;;;;5032472;28;20504;-63
2022/12/15 14:57:45;;;;;;;0.40;0.40;;;12.70;64.60;;;;;;5031822;28;20356;-63
2022/12/15 15:00:36;;;;;;;0.80;0.80;;;12.80;63.80;;;;;;5032046;28;20460;-63
2022/12/15 15:03:27;;;;;;;1.17;1.17;;;13.00;63.70;;;;;;5032991;28;20516;-63
2022/12/15 15:06:18;;;;;;;0.93;0.93;;;13.10;63.50;;;;;;5032627;28;20284;-63
2022/12/15 15:09:22;;;;;;;0.70;0.70;;;13.20;63.40;;;;;;5032373;28;20467;-63
2022/12/15 15:12:15;;;;;;;2.43;2.30;;;13.40;63.30;;;;;;5048018;28;20202;-63
2022/12/15 15:15:06;;;;;;;0.50;0.50;;;13.50;63.10;;;;;;5047943;28;20515;-63
2022/12/15 15:17:57;;;;;;;0.43;0.43;;;13.60;63.00;;;;;;5047348;28;20493;-63
2022/12/15 15:20:55;;;;;;;0.50;0.50;;;13.60;62.90;;;;;;5045076;28;20455;-63
2022/12/15 15:23:57;;;;;;;1.03;1.03;;;13.70;62.80;;;;;;5033393;28;20202;-64
2022/12/15 15:26:46;;;;;;;0.70;0.70;;;13.80;62.70;;;;;;5033594;28;20227;-64
2022/12/15 15:29:39;;;;;;;0.40;0.40;;;13.70;62.20;;;;;;5032256;28;20241;-63
2022/12/15 15:32:27;;;;;;;0.40;0.40;;;13.70;62.50;;;;;;5047563;28;20261;-64
2022/12/15 15:35:15;;;;;;;0.50;0.50;;;13.70;62.50;;;;;;5047953;28;20205;-64
2022/12/15 15:38:11;;;;;;;1.63;1.63;;;13.70;62.50;;;;;;5047009;28;20194;-64
2022/12/15 15:41:00;;;;;;;1.43;1.43;;;13.60;62.50;;;;;;5033095;28;20228;-63
2022/12/15 15:43:50;;;;;;;1.00;1.00;;;13.50;62.70;;;;;;5031861;28;20560;-63
2022/12/15 15:46:45;;;;;;;1.43;1.33;;;13.40;62.50;;;;;;5033232;28;20194;-63
2022/12/15 15:49:33;;;;;;;0.40;0.40;;;13.30;74.40;;;;;;5031094;28;20218;-63
2022/12/15 15:52:30;;;;;;;0.40;0.40;;;13.30;62.60;;;;;;5032798;28;20202;-63
2022/12/15 15:55:25;;;;;;;0.50;0.50;;;13.20;62.70;;;;;;5031358;28;20201;-63
2022/12/15 15:58:14;;;;;;;0.40;0.40;;;13.10;62.50;;;;;;5032563;28;20230;-63
2022/12/15 16:01:04;;;;;;;0.40;0.40;;;13.00;62.70;;;;;;5032334;28;20449;-63
2022/12/15 16:03:59;;;;;;;0.50;0.50;;;12.90;63.00;;;;;;5032892;28;20284;-63
2022/12/15 16:06:49;;;;;;;0.40;0.40;;;12.80;62.80;;;;;;5032807;28;20248;-63
2022/12/15 16:09:37;;;;;;;0.60;0.60;;;12.70;79.20;;;;;;5031446;28;20224;-63
2022/12/15 16:12:29;;;;;;;0.73;0.73;;;12.90;64.40;;;;;;5031157;28;20802;-63
2022/12/15 16:15:19;;;;;;;4.30;4.00;;;12.80;64.30;;;;;;5031841;28;20452;-63
2022/12/15 16:18:09;;;;;;;0.50;0.50;;;12.80;64.10;;;;;;5032203;28;20447;-63
2022/12/15 16:20:57;;;;;;;1.73;1.63;;;13.00;64.00;;;;;;5031357;28;20481;-63
2022/12/15 16:23:47;;;;;;;0.40;0.40;;;13.10;63.80;;;;;;5032128;28;20202;-63
2022/12/15 16:26:36;;;;;;;1.63;1.53;;;13.30;63.80;;;;;;5032349;28;20202;-64
2022/12/15 16:29:24;;;;;;;0.60;0.60;;;13.40;63.20;;;;;;5031689;28;20463;-63
2022/12/15 16:32:12;;;;;;;0.40;0.40;;;13.40;63.50;;;;;;5032427;28;20563;-63
2022/12/15 16:35:01;;;;;;;0.93;0.93;;;13.50;63.40;;;;;;5032313;28;20206;-63
2022/12/15 16:37:50;;;;;;;1.17;1.17;;;13.50;63.30;;;;;;5031512;28;20198;-63
2022/12/15 16:40:38;;;;;;;0.47;0.47;;;13.50;63.10;;;;;;5031794;28;20224;-63
2022/12/15 16:43:27;;;;;;;0.40;0.40;;;13.50;62.90;;;;;;5031345;28;20885;-63
2022/12/15 16:46:23;;;;;;;1.90;1.80;;;13.40;62.80;;;;;;5031407;28;20429;-63
2022/12/15 16:49:11;;;;;;;0.40;0.40;;;13.40;63.70;;;;;;5030588;28;20586;-64
2022/12/15 16:52:01;;;;;;;0.40;0.40;;;13.40;63.20;;;;;;5031074;28;20444;-63
2022/12/15 16:54:50;;;;;;;0.77;0.77;;;13.20;63.10;;;;;;5032313;28;20206;-63
2022/12/15 16:57:38;;;;;;;0.80;0.80;;;13.20;63.10;;;;;;5036207;28;20210;-63
2022/12/15 17:00:30;;;;;;;0.40;0.40;;;13.10;62.90;;;;;;5065151;22;20222;-61
2022/12/15 17:03:21;;;;;;;0.40;0.40;;;13.10;63.00;;;;;;5094281;28;20412;-60
2022/12/15 17:06:12;;;;;;;1.30;1.20;;;13.00;62.60;;;;;;5093277;28;20200;-60
2022/12/15 17:09:02;;;;;;;2.23;1.83;;;12.90;62.80;;;;;;5094914;28;20210;-60
2022/12/15 17:11:51;;;;;;;0.50;0.50;;;12.90;63.00;;;;;;5094039;28;20212;-60
2022/12/15 17:14:39;;;;;;;0.40;0.40;;;12.80;62.90;;;;;;5095046;28;20462;-60
2022/12/15 17:17:28;;;;;;;1.20;1.20;;;12.70;63.10;;;;;;5094514;28;20287;-60